^^
Meteo Knjazevac Station Historical Data
Daily Summary for May 29, 2021 Units:  Metric    English   Both
Daily Weekly Monthly Yearly Custom
  High: Low: Average:
Temperature: 17.8 °C 9.7 °C 11.7 °C
Dew Point: 13.2 °C 9.1 °C 10.4 °C
Humidity: 98% 74% 92%
Wind Speed: 11.3km/h 0km/h 3.1km/h
Wind Gust: 20.9km/h - -
Wind- - SE
Pressure: 1020.2 hPa 1019.5 hPa -
Precipitation: 0 mm    
Historical Graphs
 
 
Tabular Data for May 29, 2021
Time Temperature Dew Point Pressure Wind Wind Speed Wind Gust Humidity Rainfall Rate (Hourly) solar Conditions
00:00 12.5 °C 10.9 °C 1019.9 hPa NE 3.2 km/h 9.7 km/h 90% 0 mm 0 W/m2
00:10 12.3 °C 10.9 °C 1020.2 hPa NNE 1.6 km/h 6.4 km/h 91% 0 mm 0 W/m2
00:20 12.2 °C 10.8 °C 1020.2 hPa Calm   4.8 km/h 91% 0 mm 0 W/m2
00:30 12 °C 10.9 °C 1020.2 hPa NNE 3.2 km/h 8 km/h 93% 0 mm 0 W/m2
00:40 12 °C 10.9 °C 1020.2 hPa NNE 1.6 km/h 4.8 km/h 93% 0 mm 0 W/m2
00:50 11.8 °C 10.7 °C 1020.2 hPa NE 8 km/h 9.7 km/h 93% 0 mm 0 W/m2
01:00 11.7 °C 10.6 °C 1020.2 hPa Calm   8 km/h 93% 0 mm 0 W/m2
01:10 11.7 °C 10.6 °C 1020.2 hPa North 3.2 km/h 6.4 km/h 93% 0 mm 0 W/m2
01:20 11.6 °C 10.5 °C 1019.9 hPa Calm   4.8 km/h 93% 0 mm 0 W/m2
01:30 11.5 °C 10.4 °C 1019.9 hPa Calm   4.8 km/h 93% 0 mm 0 W/m2
01:40 11.4 °C 10.3 °C 1019.9 hPa SSE 1.6 km/h 4.8 km/h 93% 0 mm 0 W/m2
01:50 11.3 °C 10.2 °C 1020.2 hPa Calm   6.4 km/h 93% 0 mm 0 W/m2
02:00 11.2 °C 10.1 °C 1019.9 hPa WSW 3.2 km/h 3.2 km/h 93% 0 mm 0 W/m2
02:10 11.1 °C 10 °C 1020.2 hPa Calm   4.8 km/h 93% 0 mm 0 W/m2
02:20 10.9 °C 9.9 °C 1020.2 hPa Calm   4.8 km/h 94% 0 mm 0 W/m2
02:30 10.9 °C 9.9 °C 1020.2 hPa SSE 3.2 km/h 3.2 km/h 94% 0 mm 0 W/m2
02:40 10.8 °C 9.9 °C 1019.9 hPa ESE 1.6 km/h 8 km/h 94% 0 mm 0 W/m2
02:50 10.7 °C 9.8 °C 1019.9 hPa NE 1.6 km/h 4.8 km/h 94% 0 mm 0 W/m2
03:00 10.7 °C 9.8 °C 1019.9 hPa SE 3.2 km/h 6.4 km/h 94% 0 mm 0 W/m2
03:10 10.7 °C 9.8 °C 1019.9 hPa NE 1.6 km/h 4.8 km/h 94% 0 mm 0 W/m2
03:20 10.5 °C 9.6 °C 1019.9 hPa SSE 3.2 km/h 8 km/h 94% 0 mm 0 W/m2
03:30 10.4 °C 9.6 °C 1019.9 hPa SSE 3.2 km/h 8 km/h 95% 0 mm 0 W/m2
03:40 10.3 °C 9.6 °C 1019.9 hPa Calm   8 km/h 95% 0 mm 0 W/m2
03:50 10.3 °C 9.6 °C 1019.9 hPa SW 3.2 km/h 6.4 km/h 95% 0 mm 0 W/m2
04:00 10.2 °C 9.4 °C 1019.9 hPa Calm   4.8 km/h 95% 0 mm 0 W/m2
04:10 10.1 °C 9.3 °C 1019.9 hPa East 3.2 km/h 4.8 km/h 95% 0 mm 0 W/m2
04:20 10 °C 9.2 °C 1019.9 hPa NE 1.6 km/h 6.4 km/h 95% 0 mm 0 W/m2
04:30 10 °C 9.4 °C 1019.9 hPa NE 3.2 km/h 4.8 km/h 96% 0 mm 0 W/m2
04:40 9.9 °C 9.3 °C 1019.9 hPa NE 4.8 km/h 6.4 km/h 96% 0 mm 0 W/m2
04:50 10 °C 9.4 °C 1019.9 hPa Calm   8 km/h 96% 0 mm 0 W/m2
05:00 9.8 °C 9.2 °C 1019.9 hPa Calm   3.2 km/h 96% 0 mm 6 W/m2
05:10 9.8 °C 9.2 °C 1019.9 hPa Calm   3.2 km/h 96% 0 mm 12 W/m2
05:20 9.7 °C 9.1 °C 1019.9 hPa ENE 3.2 km/h 4.8 km/h 96% 0 mm 19 W/m2
05:30 9.8 °C 9.2 °C 1019.9 hPa ENE 1.6 km/h 8 km/h 96% 0 mm 27 W/m2
05:40 9.8 °C 9.5 °C 1019.9 hPa Calm   6.4 km/h 98% 0 mm 35 W/m2
05:50 9.8 °C 9.5 °C 1019.9 hPa ESE 3.2 km/h 4.8 km/h 98% 0 mm 68 W/m2
06:00 9.9 °C 9.6 °C 1019.9 hPa NE 1.6 km/h 4.8 km/h 98% 0 mm 93 W/m2
06:10 10.1 °C 9.8 °C 1019.9 hPa ENE 1.6 km/h 6.4 km/h 98% 0 mm 118 W/m2
06:20 10.2 °C 9.9 °C 1019.9 hPa ESE 3.2 km/h 8 km/h 98% 0 mm 145 W/m2
06:30 10.4 °C 10.1 °C 1019.9 hPa SE 3.2 km/h 8 km/h 98% 0 mm 171 W/m2
06:40 10.5 °C 9.9 °C 1019.9 hPa East 3.2 km/h 9.7 km/h 96% 0 mm 201 W/m2
06:50 10.9 °C 10.3 °C 1019.9 hPa ESE 4.8 km/h 11.3 km/h 96% 0 mm 235 W/m2
07:00 11.2 °C 10.6 °C 1019.9 hPa ESE 4.8 km/h 12.9 km/h 96% 0 mm 266 W/m2
07:10 11.5 °C 10.9 °C 1019.9 hPa SE 1.6 km/h 8 km/h 96% 0 mm 299 W/m2
07:20 11.8 °C 11 °C 1019.9 hPa ENE 1.6 km/h 6.4 km/h 95% 0 mm 336 W/m2
07:30 12.2 °C 11.3 °C 1019.9 hPa SSE 3.2 km/h 9.7 km/h 94% 0 mm 371 W/m2
07:40 12.6 °C 11.5 °C 1019.9 hPa SSE 1.6 km/h 9.7 km/h 93% 0 mm 405 W/m2
07:50 12.9 °C 11.5 °C 1019.9 hPa SW 4.8 km/h 11.3 km/h 91% 0 mm 436 W/m2
08:00 13.4 °C 11.6 °C 1019.9 hPa SW 4.8 km/h 11.3 km/h 89% 0 mm 471 W/m2
08:10 13.8 °C 11.8 °C 1019.9 hPa SW 8 km/h 12.9 km/h 88% 0 mm 507 W/m2
08:20 14.1 °C 11.8 °C 1019.9 hPa SW 4.8 km/h 12.9 km/h 86% 0 mm 544 W/m2
08:30 14.5 °C 11.8 °C 1019.9 hPa SW 9.7 km/h 12.9 km/h 84% 0 mm 578 W/m2
08:40 14.8 °C 11.9 °C 1019.9 hPa SW 8 km/h 12.9 km/h 83% 0 mm 607 W/m2
08:50 15.3 °C 12.1 °C 1019.5 hPa SW 8 km/h 11.3 km/h 81% 0 mm 640 W/m2
09:00 16 °C 12.6 °C 1019.5 hPa SW 3.2 km/h 12.9 km/h 80% 0 mm 667 W/m2
09:10 16.8 °C 12.9 °C 1019.5 hPa SW 8 km/h 16.1 km/h 78% 0 mm 694 W/m2
09:20 17.3 °C 13.2 °C 1019.5 hPa SW 9.7 km/h 16.1 km/h 77% 0 mm 719 W/m2
09:30 17.8 °C 13.1 °C 1019.5 hPa SW 11.3 km/h 20.9 km/h 74% 0 mm 743 W/m2
Knjazevac, Serbia
Compliments of Weather Underground - 2 mb